PWSweather.com
Personal Weather Stations
Station Observations
HARSTAD1
Kanebogen, HarstadNO 9411

KanebogenHarstadNO 9411

Lat: 68.7731054, Lon: 16.5496315

Elevation: 213

Station Type: Netatmo Weather Station

http://oddne.net/met/

Latest ConditionsUpdated 9:48:35 PM GMT+01:01 Wednesday, Apr 24, 2019
Currently Today's Max Today's Min Today's Average
Temperature 44.1°F6.7°C 57.4°F14.1°C 39.7°F4.3°C 48.6°F9.2°C
Dew Point 36.9°F2.7°C 43.7°F6.5°C 36.7°F2.6°C 40.1°F4.5°C
Winds 1.9 mph W3.1 kmh W 3.7 mph -6.0 kmh - - 1.4 mph 2.3 kmh
Wind Gusts 3.1 mph5.0 kmh 8.1 mph13.0 kmh - -
Humidity 76% 90% 58% 73%
Pressure 30.40 in1029.5 mb 30.40 in1029.5 mb 30.29 in1025.7 mb -
Hour Temp Dew Point Humidity Winds Wind Gusts Pressure Precip Precip Rate Daily Precip Total
09:48 PM 44.1°F6.7°C 36.9°F2.7°C 76% 1.9 mph W3.1 kmh W 3.1 mph5.0 kmh 30.40 in1029.5 mb 0.00 in0.0 mm 0.00 in0.0 mm 0.00 in0.0 mm
09:38 PM 44.4°F6.9°C 37.2°F2.9°C 76% 0.6 mph W1.0 kmh W 1.2 mph1.9 kmh 30.40 in1029.5 mb 0.00 in0.0 mm 0.00 in0.0 mm 0.00 in0.0 mm
09:28 PM 44.6°F7.0°C 37.0°F2.8°C 75% 1.2 mph WNW1.9 kmh WNW 2.5 mph4.0 kmh 30.40 in1029.5 mb 0.00 in0.0 mm 0.00 in0.0 mm 0.00 in0.0 mm
09:18 PM 45.0°F7.2°C 37.4°F3.0°C 75% 1.2 mph W1.9 kmh W 2.5 mph4.0 kmh 30.40 in1029.5 mb 0.00 in0.0 mm 0.00 in0.0 mm 0.00 in0.0 mm
09:08 PM 45.5°F7.5°C 37.6°F3.1°C 74% 1.2 mph WNW1.9 kmh WNW 2.5 mph4.0 kmh 30.40 in1029.5 mb 0.00 in0.0 mm 0.00 in0.0 mm 0.00 in0.0 mm
08:58 PM 45.7°F7.6°C 37.8°F3.2°C 74% 0.6 mph W1.0 kmh W 2.5 mph4.0 kmh 30.40 in1029.5 mb 0.00 in0.0 mm 0.00 in0.0 mm 0.00 in0.0 mm
08:48 PM 46.2°F7.9°C 37.9°F3.3°C 73% 1.2 mph NW1.9 kmh NW 3.1 mph5.0 kmh 30.40 in1029.5 mb 0.00 in0.0 mm 0.00 in0.0 mm 0.00 in0.0 mm
08:38 PM 46.8°F8.2°C 38.1°F3.4°C 72% 1.2 mph WNW1.9 kmh WNW 3.1 mph5.0 kmh 30.40 in1029.5 mb 0.00 in0.0 mm 0.00 in0.0 mm 0.00 in0.0 mm
08:28 PM 47.1°F8.4°C 38.5°F3.6°C 72% 1.2 mph NW1.9 kmh NW 2.5 mph4.0 kmh 30.40 in1029.5 mb 0.00 in0.0 mm 0.00 in0.0 mm 0.00 in0.0 mm
08:18 PM 47.7°F8.7°C 38.7°F3.7°C 71% 1.9 mph NW3.1 kmh NW 3.7 mph6.0 kmh 30.40 in1029.5 mb 0.00 in0.0 mm 0.00 in0.0 mm 0.00 in0.0 mm
08:08 PM 48.0°F8.9°C 39.0°F3.9°C 71% 2.5 mph NW4.0 kmh NW 5.6 mph9.0 kmh 30.39 in1029.1 mb 0.00 in0.0 mm 0.00 in0.0 mm 0.00 in0.0 mm
07:58 PM 48.2°F9.0°C 38.8°F3.8°C 70% 1.9 mph NW3.1 kmh NW 5.6 mph9.0 kmh 30.39 in1029.1 mb 0.00 in0.0 mm 0.00 in0.0 mm 0.00 in0.0 mm
07:48 PM 48.2°F9.0°C 38.8°F3.8°C 70% 1.9 mph NW3.1 kmh NW 3.1 mph5.0 kmh 30.39 in1029.1 mb 0.00 in0.0 mm 0.00 in0.0 mm 0.00 in0.0 mm
07:38 PM 48.6°F9.2°C 39.2°F4.0°C 70% 1.9 mph NW3.1 kmh NW 3.1 mph5.0 kmh 30.39 in1029.1 mb 0.00 in0.0 mm 0.00 in0.0 mm 0.00 in0.0 mm
07:28 PM 48.9°F9.4°C 39.4°F4.1°C 70% 1.9 mph NW3.1 kmh NW 3.1 mph5.0 kmh 30.39 in1029.1 mb 0.00 in0.0 mm 0.00 in0.0 mm 0.00 in0.0 mm
07:18 PM 49.1°F9.5°C 39.6°F4.2°C 70% 2.5 mph NW4.0 kmh NW 4.4 mph7.1 kmh 30.39 in1029.1 mb 0.00 in0.0 mm 0.00 in0.0 mm 0.00 in0.0 mm
07:08 PM 49.1°F9.5°C 39.9°F4.4°C 71% 2.5 mph NNW4.0 kmh NNW 5.0 mph8.0 kmh 30.39 in1029.1 mb 0.00 in0.0 mm 0.00 in0.0 mm 0.00 in0.0 mm
06:58 PM 49.5°F9.7°C 39.9°F4.4°C 70% 2.5 mph NW4.0 kmh NW 5.6 mph9.0 kmh 30.39 in1029.1 mb 0.00 in0.0 mm 0.00 in0.0 mm 0.00 in0.0 mm
06:48 PM 49.8°F9.9°C 39.9°F4.4°C 69% 2.5 mph WNW4.0 kmh WNW 5.6 mph9.0 kmh 30.39 in1029.1 mb 0.00 in0.0 mm 0.00 in0.0 mm 0.00 in0.0 mm
06:38 PM 50.2°F10.1°C 39.9°F4.4°C 68% 2.5 mph NW4.0 kmh NW 5.0 mph8.0 kmh 30.39 in1029.1 mb 0.00 in0.0 mm 0.00 in0.0 mm 0.00 in0.0 mm
06:28 PM 50.5°F10.3°C 40.3°F4.6°C 68% 1.2 mph W1.9 kmh W 3.1 mph5.0 kmh 30.39 in1029.1 mb 0.00 in0.0 mm 0.00 in0.0 mm 0.00 in0.0 mm
06:18 PM 50.9°F10.5°C 40.3°F4.6°C 67% 1.2 mph NW1.9 kmh NW 3.7 mph6.0 kmh 30.39 in1029.1 mb 0.00 in0.0 mm 0.00 in0.0 mm 0.00 in0.0 mm
06:08 PM 51.1°F10.6°C 39.9°F4.4°C 66% 1.2 mph NNW1.9 kmh NNW 3.1 mph5.0 kmh 30.39 in1029.1 mb 0.00 in0.0 mm 0.00 in0.0 mm 0.00 in0.0 mm
05:58 PM 51.3°F10.7°C 39.7°F4.3°C 65% 1.2 mph NW1.9 kmh NW 3.7 mph6.0 kmh 30.38 in1028.8 mb 0.00 in0.0 mm 0.00 in0.0 mm 0.00 in0.0 mm
05:48 PM 51.4°F10.8°C 39.9°F4.4°C 65% 1.2 mph NNW1.9 kmh NNW 2.5 mph4.0 kmh 30.38 in1028.8 mb 0.00 in0.0 mm 0.00 in0.0 mm 0.00 in0.0 mm
05:38 PM 51.6°F10.9°C 40.1°F4.5°C 65% 1.2 mph N1.9 kmh N 2.5 mph4.0 kmh 30.38 in1028.8 mb 0.00 in0.0 mm 0.00 in0.0 mm 0.00 in0.0 mm
05:28 PM 51.8°F11.0°C 40.3°F4.6°C 65% 1.2 mph N1.9 kmh N 2.5 mph4.0 kmh 30.38 in1028.8 mb 0.00 in0.0 mm 0.00 in0.0 mm 0.00 in0.0 mm
05:18 PM 51.8°F11.0°C 40.3°F4.6°C 65% 1.2 mph NNW1.9 kmh NNW 3.7 mph6.0 kmh 30.38 in1028.8 mb 0.00 in0.0 mm 0.00 in0.0 mm 0.00 in0.0 mm
05:08 PM 51.8°F11.0°C 40.6°F4.8°C 66% 1.9 mph NNW3.1 kmh NNW 3.7 mph6.0 kmh 30.38 in1028.8 mb 0.00 in0.0 mm 0.00 in0.0 mm 0.00 in0.0 mm
04:58 PM 52.0°F11.1°C 40.8°F4.9°C 66% 2.5 mph NNW4.0 kmh NNW 5.0 mph8.0 kmh 30.39 in1029.1 mb 0.00 in0.0 mm 0.00 in0.0 mm 0.00 in0.0 mm
04:48 PM 52.2°F11.2°C 41.0°F5.0°C 66% 1.9 mph NNW3.1 kmh NNW 4.4 mph7.1 kmh 30.39 in1029.1 mb 0.00 in0.0 mm 0.00 in0.0 mm 0.00 in0.0 mm
04:38 PM 52.2°F11.2°C 40.6°F4.8°C 65% 1.2 mph N1.9 kmh N 3.7 mph6.0 kmh 30.39 in1029.1 mb 0.00 in0.0 mm 0.00 in0.0 mm 0.00 in0.0 mm
04:28 PM 52.2°F11.2°C 40.6°F4.8°C 65% 1.9 mph NNW3.1 kmh NNW 3.7 mph6.0 kmh 30.40 in1029.5 mb 0.00 in0.0 mm 0.00 in0.0 mm 0.00 in0.0 mm
04:18 PM 52.2°F11.2°C 40.6°F4.8°C 65% 1.9 mph NNW3.1 kmh NNW 4.4 mph7.1 kmh 30.40 in1029.5 mb 0.00 in0.0 mm 0.00 in0.0 mm 0.00 in0.0 mm
04:08 PM 52.2°F11.2°C 41.0°F5.0°C 66% 1.9 mph NW3.1 kmh NW 4.4 mph7.1 kmh 30.40 in1029.5 mb 0.00 in0.0 mm 0.00 in0.0 mm 0.00 in0.0 mm
03:58 PM 52.3°F11.3°C 40.8°F4.9°C 65% 2.5 mph NW4.0 kmh NW 5.6 mph9.0 kmh 30.40 in1029.5 mb 0.00 in0.0 mm 0.00 in0.0 mm 0.00 in0.0 mm
03:48 PM 52.5°F11.4°C 41.0°F5.0°C 65% 1.9 mph NNW3.1 kmh NNW 4.4 mph7.1 kmh 30.40 in1029.5 mb 0.00 in0.0 mm 0.00 in0.0 mm 0.00 in0.0 mm
03:38 PM 52.7°F11.5°C 41.2°F5.1°C 65% 2.5 mph NW4.0 kmh NW 5.0 mph8.0 kmh 30.39 in1029.1 mb 0.00 in0.0 mm 0.00 in0.0 mm 0.00 in0.0 mm
03:28 PM 52.9°F11.6°C 41.4°F5.2°C 65% 2.5 mph NW4.0 kmh NW 5.0 mph8.0 kmh 30.40 in1029.5 mb 0.00 in0.0 mm 0.00 in0.0 mm 0.00 in0.0 mm
03:18 PM 53.1°F11.7°C 41.2°F5.1°C 64% 2.5 mph NW4.0 kmh NW 5.0 mph8.0 kmh 30.40 in1029.5 mb 0.00 in0.0 mm 0.00 in0.0 mm 0.00 in0.0 mm
03:08 PM 53.1°F11.7°C 41.2°F5.1°C 64% 2.5 mph NNW4.0 kmh NNW 5.6 mph9.0 kmh 30.39 in1029.1 mb 0.00 in0.0 mm 0.00 in0.0 mm 0.00 in0.0 mm
02:58 PM 53.2°F11.8°C 41.2°F5.1°C 64% 2.5 mph N4.0 kmh N 5.6 mph9.0 kmh 30.39 in1029.1 mb 0.00 in0.0 mm 0.00 in0.0 mm 0.00 in0.0 mm
02:48 PM 53.4°F11.9°C 41.4°F5.2°C 64% 3.1 mph NNW5.0 kmh NNW 6.2 mph10.0 kmh 30.39 in1029.1 mb 0.00 in0.0 mm 0.00 in0.0 mm 0.00 in0.0 mm
02:38 PM 53.6°F12.0°C 41.5°F5.3°C 64% 3.1 mph NNW5.0 kmh NNW 6.2 mph10.0 kmh 30.39 in1029.1 mb 0.00 in0.0 mm 0.00 in0.0 mm 0.00 in0.0 mm
02:28 PM 54.0°F12.2°C 41.5°F5.3°C 63% 3.1 mph NW5.0 kmh NW 7.5 mph12.1 kmh 30.39 in1029.1 mb 0.00 in0.0 mm 0.00 in0.0 mm 0.00 in0.0 mm
02:18 PM 54.3°F12.4°C 41.5°F5.3°C 62% 3.7 mph NNW6.0 kmh NNW 7.5 mph12.1 kmh 30.39 in1029.1 mb 0.00 in0.0 mm 0.00 in0.0 mm 0.00 in0.0 mm
02:08 PM 54.9°F12.7°C 42.8°F6.0°C 64% 3.7 mph SW6.0 kmh SW 8.1 mph13.0 kmh 30.39 in1029.1 mb 0.00 in0.0 mm 0.00 in0.0 mm 0.00 in0.0 mm
01:58 PM 54.5°F12.5°C 42.1°F5.6°C 63% 1.2 mph NNW1.9 kmh NNW 3.1 mph5.0 kmh 30.39 in1029.1 mb 0.00 in0.0 mm 0.00 in0.0 mm 0.00 in0.0 mm
01:48 PM 54.9°F12.7°C 42.4°F5.8°C 63% 1.2 mph N1.9 kmh N 3.7 mph6.0 kmh 30.39 in1029.1 mb 0.00 in0.0 mm 0.00 in0.0 mm 0.00 in0.0 mm
01:38 PM 55.0°F12.8°C 42.1°F5.6°C 62% 1.2 mph ESE1.9 kmh ESE 3.1 mph5.0 kmh 30.40 in1029.5 mb 0.00 in0.0 mm 0.00 in0.0 mm 0.00 in0.0 mm
01:28 PM 55.0°F12.8°C 42.1°F5.6°C 62% 1.2 mph SE1.9 kmh SE 3.1 mph5.0 kmh 30.39 in1029.1 mb 0.00 in0.0 mm 0.00 in0.0 mm 0.00 in0.0 mm
01:18 PM 55.0°F12.8°C 42.1°F5.6°C 62% 1.2 mph S1.9 kmh S 3.1 mph5.0 kmh 30.39 in1029.1 mb 0.00 in0.0 mm 0.00 in0.0 mm 0.00 in0.0 mm
01:08 PM 55.0°F12.8°C 42.1°F5.6°C 62% 1.2 mph SSE1.9 kmh SSE 2.5 mph4.0 kmh 30.39 in1029.1 mb 0.00 in0.0 mm 0.00 in0.0 mm 0.00 in0.0 mm
12:58 PM 55.0°F12.8°C 41.7°F5.4°C 61% 1.2 mph SE1.9 kmh SE 2.5 mph4.0 kmh 30.39 in1029.1 mb 0.00 in0.0 mm 0.00 in0.0 mm 0.00 in0.0 mm
12:48 PM 55.0°F12.8°C 41.7°F5.4°C 61% 1.2 mph SE1.9 kmh SE 3.1 mph5.0 kmh 30.39 in1029.1 mb 0.00 in0.0 mm 0.00 in0.0 mm 0.00 in0.0 mm
12:38 PM 55.2°F12.9°C 41.9°F5.5°C 61% 1.2 mph SE1.9 kmh SE 2.5 mph4.0 kmh 30.39 in1029.1 mb 0.00 in0.0 mm 0.00 in0.0 mm 0.00 in0.0 mm
12:28 PM 55.2°F12.9°C 41.5°F5.3°C 60% 1.2 mph SE1.9 kmh SE 3.1 mph5.0 kmh 30.39 in1029.1 mb 0.00 in0.0 mm 0.00 in0.0 mm 0.00 in0.0 mm
12:18 PM 55.4°F13.0°C 41.5°F5.3°C 60% 1.9 mph ESE3.1 kmh ESE 4.4 mph7.1 kmh 30.39 in1029.1 mb 0.00 in0.0 mm 0.00 in0.0 mm 0.00 in0.0 mm
12:08 PM 55.6°F13.1°C 41.7°F5.4°C 60% 1.9 mph ESE3.1 kmh ESE 4.4 mph7.1 kmh 30.39 in1029.1 mb 0.00 in0.0 mm 0.00 in0.0 mm 0.00 in0.0 mm
11:58 AM 55.8°F13.2°C 41.9°F5.5°C 60% 1.2 mph ESE1.9 kmh ESE 3.1 mph5.0 kmh 30.39 in1029.1 mb 0.00 in0.0 mm 0.00 in0.0 mm 0.00 in0.0 mm
11:48 AM 55.6°F13.1°C 42.3°F5.7°C 61% 1.9 mph SE3.1 kmh SE 5.0 mph8.0 kmh 30.39 in1029.1 mb 0.00 in0.0 mm 0.00 in0.0 mm 0.00 in0.0 mm
11:38 AM 55.6°F13.1°C 41.4°F5.2°C 59% 2.5 mph SE4.0 kmh SE 4.4 mph7.1 kmh 30.39 in1029.1 mb 0.00 in0.0 mm 0.00 in0.0 mm 0.00 in0.0 mm
11:28 AM 56.7°F13.7°C 42.4°F5.8°C 59% 2.5 mph E4.0 kmh E 5.0 mph8.0 kmh 30.39 in1029.1 mb 0.00 in0.0 mm 0.00 in0.0 mm 0.00 in0.0 mm
11:18 AM 57.4°F14.1°C 42.6°F5.9°C 58% 1.9 mph SE3.1 kmh SE 5.0 mph8.0 kmh 30.38 in1028.8 mb 0.00 in0.0 mm 0.00 in0.0 mm 0.00 in0.0 mm
11:08 AM 57.4°F14.1°C 42.6°F5.9°C 58% 0.6 mph SSW1.0 kmh SSW 3.1 mph5.0 kmh 30.38 in1028.8 mb 0.00 in0.0 mm 0.00 in0.0 mm 0.00 in0.0 mm
10:58 AM 57.4°F14.1°C 42.6°F5.9°C 58% 1.2 mph SE1.9 kmh SE 4.4 mph7.1 kmh 30.38 in1028.8 mb 0.00 in0.0 mm 0.00 in0.0 mm 0.00 in0.0 mm
10:48 AM 57.2°F14.0°C 42.8°F6.0°C 59% 1.2 mph SE1.9 kmh SE 3.1 mph5.0 kmh 30.38 in1028.8 mb 0.00 in0.0 mm 0.00 in0.0 mm 0.00 in0.0 mm
10:38 AM 57.0°F13.9°C 43.5°F6.4°C 61% 1.2 mph SE1.9 kmh SE 3.1 mph5.0 kmh 30.38 in1028.8 mb 0.00 in0.0 mm 0.00 in0.0 mm 0.00 in0.0 mm
10:28 AM 57.0°F13.9°C 43.5°F6.4°C 61% 1.2 mph S1.9 kmh S 3.1 mph5.0 kmh 30.38 in1028.8 mb 0.00 in0.0 mm 0.00 in0.0 mm 0.00 in0.0 mm
10:18 AM 56.5°F13.6°C 43.5°F6.4°C 62% 1.2 mph SE1.9 kmh SE 2.5 mph4.0 kmh 30.37 in1028.4 mb 0.00 in0.0 mm 0.00 in0.0 mm 0.00 in0.0 mm
10:08 AM 55.8°F13.2°C 43.2°F6.2°C 63% 1.2 mph SE1.9 kmh SE 3.1 mph5.0 kmh 30.37 in1028.4 mb 0.00 in0.0 mm 0.00 in0.0 mm 0.00 in0.0 mm
09:58 AM 55.6°F13.1°C 43.5°F6.4°C 64% 1.2 mph ESE1.9 kmh ESE 2.5 mph4.0 kmh 30.37 in1028.4 mb 0.00 in0.0 mm 0.00 in0.0 mm 0.00 in0.0 mm
09:48 AM 55.0°F12.8°C 43.7°F6.5°C 66% 1.9 mph SW3.1 kmh SW 4.4 mph7.1 kmh 30.37 in1028.4 mb 0.00 in0.0 mm 0.00 in0.0 mm 0.00 in0.0 mm
09:38 AM 54.3°F12.4°C 43.5°F6.4°C 67% 1.2 mph SW1.9 kmh SW 2.5 mph4.0 kmh 30.37 in1028.4 mb 0.00 in0.0 mm 0.00 in0.0 mm 0.00 in0.0 mm
09:28 AM 53.8°F12.1°C 43.0°F6.1°C 67% 0.6 mph SE1.0 kmh SE 1.9 mph3.1 kmh 30.37 in1028.4 mb 0.00 in0.0 mm 0.00 in0.0 mm 0.00 in0.0 mm
09:18 AM 53.4°F11.9°C 43.0°F6.1°C 68% 0.6 mph SE1.0 kmh SE 2.5 mph4.0 kmh 30.37 in1028.4 mb 0.00 in0.0 mm 0.00 in0.0 mm 0.00 in0.0 mm
09:08 AM 53.1°F11.7°C 42.6°F5.9°C 68% 1.2 mph SE1.9 kmh SE 2.5 mph4.0 kmh 30.37 in1028.4 mb 0.00 in0.0 mm 0.00 in0.0 mm 0.00 in0.0 mm
08:58 AM 52.5°F11.4°C 43.0°F6.1°C 70% 0.6 mph NW1.0 kmh NW 3.1 mph5.0 kmh 30.37 in1028.4 mb 0.00 in0.0 mm 0.00 in0.0 mm 0.00 in0.0 mm
08:48 AM 52.0°F11.1°C 42.4°F5.8°C 70% 0.6 mph S1.0 kmh S 2.5 mph4.0 kmh 30.36 in1028.1 mb 0.00 in0.0 mm 0.00 in0.0 mm 0.00 in0.0 mm
08:38 AM 51.6°F10.9°C 42.4°F5.8°C 71% 0.6 mph E1.0 kmh E 2.5 mph4.0 kmh 30.36 in1028.1 mb 0.00 in0.0 mm 0.00 in0.0 mm 0.00 in0.0 mm
08:28 AM 51.1°F10.6°C 42.3°F5.7°C 72% 0.6 mph SE1.0 kmh SE 1.9 mph3.1 kmh 30.36 in1028.1 mb 0.00 in0.0 mm 0.00 in0.0 mm 0.00 in0.0 mm
08:18 AM 50.9°F10.5°C 42.1°F5.6°C 72% 0.6 mph 1.0 kmh 1.9 mph3.1 kmh 30.36 in1028.1 mb 0.00 in0.0 mm 0.00 in0.0 mm 0.00 in0.0 mm
08:08 AM 50.7°F10.4°C 42.3°F5.7°C 73% 0.6 mph W1.0 kmh W 1.2 mph1.9 kmh 30.35 in1027.8 mb 0.00 in0.0 mm 0.00 in0.0 mm 0.00 in0.0 mm
07:58 AM 50.4°F10.2°C 41.9°F5.5°C 73% 0.6 mph NW1.0 kmh NW 1.9 mph3.1 kmh 30.35 in1027.8 mb 0.00 in0.0 mm 0.00 in0.0 mm 0.00 in0.0 mm
07:48 AM 50.0°F10.0°C 41.9°F5.5°C 74% 0.6 mph NW1.0 kmh NW 1.9 mph3.1 kmh 30.35 in1027.8 mb 0.00 in0.0 mm 0.00 in0.0 mm 0.00 in0.0 mm
07:38 AM 49.6°F9.8°C 41.5°F5.3°C 74% 0.6 mph SW1.0 kmh SW 1.2 mph1.9 kmh 30.35 in1027.8 mb 0.00 in0.0 mm 0.00 in0.0 mm 0.00 in0.0 mm
07:28 AM 49.6°F9.8°C 41.5°F5.3°C 74% 0.6 mph SE1.0 kmh SE 1.9 mph3.1 kmh 30.35 in1027.8 mb 0.00 in0.0 mm 0.00 in0.0 mm 0.00 in0.0 mm
07:18 AM 49.5°F9.7°C 41.4°F5.2°C 74% 0.6 mph E1.0 kmh E 1.2 mph1.9 kmh 30.35 in1027.8 mb 0.00 in0.0 mm 0.00 in0.0 mm 0.00 in0.0 mm
07:08 AM 49.6°F9.8°C 41.5°F5.3°C 74% 0.6 mph NE1.0 kmh NE 2.5 mph4.0 kmh 30.35 in1027.8 mb 0.00 in0.0 mm 0.00 in0.0 mm 0.00 in0.0 mm
06:58 AM 49.3°F9.6°C 41.9°F5.5°C 76% 0.6 mph E1.0 kmh E 1.9 mph3.1 kmh 30.35 in1027.8 mb 0.00 in0.0 mm 0.00 in0.0 mm 0.00 in0.0 mm
06:48 AM 48.7°F9.3°C 42.1°F5.6°C 78% 0.6 mph E1.0 kmh E 3.1 mph5.0 kmh 30.35 in1027.8 mb 0.00 in0.0 mm 0.00 in0.0 mm 0.00 in0.0 mm
06:38 AM 47.7°F8.7°C 42.1°F5.6°C 81% 1.2 mph W1.9 kmh W 2.5 mph4.0 kmh 30.35 in1027.8 mb 0.00 in0.0 mm 0.00 in0.0 mm 0.00 in0.0 mm
06:28 AM 46.4°F8.0°C 41.7°F5.4°C 84% 1.9 mph SW3.1 kmh SW 3.7 mph6.0 kmh 30.34 in1027.4 mb 0.00 in0.0 mm 0.00 in0.0 mm 0.00 in0.0 mm
06:18 AM 45.7°F7.6°C 41.4°F5.2°C 85% 2.5 mph WSW4.0 kmh WSW 4.4 mph7.1 kmh 30.34 in1027.4 mb 0.00 in0.0 mm 0.00 in0.0 mm 0.00 in0.0 mm
06:08 AM 44.2°F6.8°C 40.3°F4.6°C 86% 1.9 mph WSW3.1 kmh WSW 4.4 mph7.1 kmh 30.34 in1027.4 mb 0.00 in0.0 mm 0.00 in0.0 mm 0.00 in0.0 mm
05:58 AM 43.3°F6.3°C 39.7°F4.3°C 87% 1.9 mph NW3.1 kmh NW 3.7 mph6.0 kmh 30.34 in1027.4 mb 0.00 in0.0 mm 0.00 in0.0 mm 0.00 in0.0 mm
05:48 AM 42.6°F5.9°C 39.2°F4.0°C 88% 1.2 mph NW1.9 kmh NW 3.1 mph5.0 kmh 30.34 in1027.4 mb 0.00 in0.0 mm 0.00 in0.0 mm 0.00 in0.0 mm
05:38 AM 42.1°F5.6°C 39.0°F3.9°C 89% 1.2 mph NW1.9 kmh NW 3.1 mph5.0 kmh 30.34 in1027.4 mb 0.00 in0.0 mm 0.00 in0.0 mm 0.00 in0.0 mm
05:28 AM 41.5°F5.3°C 38.8°F3.8°C 90% 0.6 mph NW1.0 kmh NW 1.9 mph3.1 kmh 30.34 in1027.4 mb 0.00 in0.0 mm 0.00 in0.0 mm 0.00 in0.0 mm
05:18 AM 41.2°F5.1°C 38.5°F3.6°C 90% 0.6 mph W1.0 kmh W 1.2 mph1.9 kmh 30.34 in1027.4 mb 0.00 in0.0 mm 0.00 in0.0 mm 0.00 in0.0 mm
05:08 AM 40.8°F4.9°C 37.8°F3.2°C 89% 0.6 mph NW1.0 kmh NW 2.5 mph4.0 kmh 30.34 in1027.4 mb 0.00 in0.0 mm 0.00 in0.0 mm 0.00 in0.0 mm
04:58 AM 40.6°F4.8°C 37.6°F3.1°C 89% 0.6 mph NW1.0 kmh NW 1.9 mph3.1 kmh 30.33 in1027.1 mb 0.00 in0.0 mm 0.00 in0.0 mm 0.00 in0.0 mm
04:48 AM 40.6°F4.8°C 37.6°F3.1°C 89% 1.2 mph W1.9 kmh W 2.5 mph4.0 kmh 30.33 in1027.1 mb 0.00 in0.0 mm 0.00 in0.0 mm 0.00 in0.0 mm
04:38 AM 40.5°F4.7°C 37.8°F3.2°C 90% 1.2 mph W1.9 kmh W 2.5 mph4.0 kmh 30.33 in1027.1 mb 0.00 in0.0 mm 0.00 in0.0 mm 0.00 in0.0 mm
04:28 AM 40.1°F4.5°C 37.4°F3.0°C 90% 0.6 mph NW1.0 kmh NW 1.9 mph3.1 kmh 30.33 in1027.1 mb 0.00 in0.0 mm 0.00 in0.0 mm 0.00 in0.0 mm
04:18 AM 40.1°F4.5°C 37.0°F2.8°C 89% 1.2 mph NNW1.9 kmh NNW 2.5 mph4.0 kmh 30.33 in1027.1 mb 0.00 in0.0 mm 0.00 in0.0 mm 0.00 in0.0 mm
04:08 AM 40.1°F4.5°C 37.0°F2.8°C 89% 0.6 mph NW1.0 kmh NW 1.9 mph3.1 kmh 30.33 in1027.1 mb 0.00 in0.0 mm 0.00 in0.0 mm 0.00 in0.0 mm
03:58 AM 40.1°F4.5°C 37.0°F2.8°C 89% 1.2 mph WNW1.9 kmh WNW 2.5 mph4.0 kmh 30.33 in1027.1 mb 0.00 in0.0 mm 0.00 in0.0 mm 0.00 in0.0 mm
03:48 AM 40.1°F4.5°C 37.4°F3.0°C 90% 1.2 mph NW1.9 kmh NW 2.5 mph4.0 kmh 30.32 in1026.8 mb 0.00 in0.0 mm 0.00 in0.0 mm 0.00 in0.0 mm
03:38 AM 39.9°F4.4°C 37.2°F2.9°C 90% 0.6 mph W1.0 kmh W 1.9 mph3.1 kmh 30.32 in1026.8 mb 0.00 in0.0 mm 0.00 in0.0 mm 0.00 in0.0 mm
03:28 AM 39.9°F4.4°C 37.2°F2.9°C 90% 0.6 mph NNW1.0 kmh NNW 1.9 mph3.1 kmh 30.32 in1026.8 mb 0.00 in0.0 mm 0.00 in0.0 mm 0.00 in0.0 mm
03:18 AM 39.9°F4.4°C 37.2°F2.9°C 90% 0.6 mph NNW1.0 kmh NNW 2.5 mph4.0 kmh 30.32 in1026.8 mb 0.00 in0.0 mm 0.00 in0.0 mm 0.00 in0.0 mm
03:08 AM 39.7°F4.3°C 37.0°F2.8°C 90% 0.6 mph W1.0 kmh W 1.9 mph3.1 kmh 30.32 in1026.8 mb 0.00 in0.0 mm 0.00 in0.0 mm 0.00 in0.0 mm
02:58 AM 39.9°F4.4°C 37.2°F2.9°C 90% 1.2 mph NW1.9 kmh NW 3.1 mph5.0 kmh 30.31 in1026.4 mb 0.00 in0.0 mm 0.00 in0.0 mm 0.00 in0.0 mm
02:48 AM 39.9°F4.4°C 37.2°F2.9°C 90% 1.2 mph W1.9 kmh W 2.5 mph4.0 kmh 30.31 in1026.4 mb 0.00 in0.0 mm 0.00 in0.0 mm 0.00 in0.0 mm
02:38 AM 39.9°F4.4°C 37.2°F2.9°C 90% 1.2 mph NNW1.9 kmh NNW 2.5 mph4.0 kmh 30.31 in1026.4 mb 0.00 in0.0 mm 0.00 in0.0 mm 0.00 in0.0 mm
02:28 AM 39.7°F4.3°C 37.0°F2.8°C 90% 1.2 mph WNW1.9 kmh WNW 2.5 mph4.0 kmh 30.31 in1026.4 mb 0.00 in0.0 mm 0.00 in0.0 mm 0.00 in0.0 mm
02:18 AM 39.7°F4.3°C 36.7°F2.6°C 89% 1.2 mph W1.9 kmh W 3.1 mph5.0 kmh 30.31 in1026.4 mb 0.00 in0.0 mm 0.00 in0.0 mm 0.00 in0.0 mm
02:08 AM 39.7°F4.3°C 37.0°F2.8°C 90% 1.2 mph NNW1.9 kmh NNW 3.1 mph5.0 kmh 30.31 in1026.4 mb 0.00 in0.0 mm 0.00 in0.0 mm 0.00 in0.0 mm
01:58 AM 39.7°F4.3°C 37.0°F2.8°C 90% 1.2 mph NW1.9 kmh NW 2.5 mph4.0 kmh 30.30 in1026.1 mb 0.00 in0.0 mm 0.00 in0.0 mm 0.00 in0.0 mm
01:48 AM 39.7°F4.3°C 37.0°F2.8°C 90% 1.9 mph WNW3.1 kmh WNW 3.7 mph6.0 kmh 30.30 in1026.1 mb 0.00 in0.0 mm 0.00 in0.0 mm 0.00 in0.0 mm
01:38 AM 39.7°F4.3°C 37.0°F2.8°C 90% 1.2 mph WNW1.9 kmh WNW 2.5 mph4.0 kmh 30.30 in1026.1 mb 0.00 in0.0 mm 0.00 in0.0 mm 0.00 in0.0 mm
01:28 AM 39.7°F4.3°C 37.0°F2.8°C 90% 1.2 mph W1.9 kmh W 4.4 mph7.1 kmh 30.30 in1026.1 mb 0.00 in0.0 mm 0.00 in0.0 mm 0.00 in0.0 mm
01:18 AM 39.7°F4.3°C 36.7°F2.6°C 89% 0.6 mph W1.0 kmh W 1.9 mph3.1 kmh 30.30 in1026.1 mb 0.00 in0.0 mm 0.00 in0.0 mm 0.00 in0.0 mm
01:08 AM 39.7°F4.3°C 36.7°F2.6°C 89% 1.2 mph WNW1.9 kmh WNW 2.5 mph4.0 kmh 30.30 in1026.1 mb 0.00 in0.0 mm 0.00 in0.0 mm 0.00 in0.0 mm
12:58 AM 39.7°F4.3°C 37.0°F2.8°C 90% 1.9 mph NW3.1 kmh NW 3.7 mph6.0 kmh 30.30 in1026.1 mb 0.00 in0.0 mm 0.00 in0.0 mm 0.00 in0.0 mm
12:48 AM 39.7°F4.3°C 36.7°F2.6°C 89% 0.6 mph W1.0 kmh W 2.5 mph4.0 kmh 30.30 in1026.1 mb 0.00 in0.0 mm 0.00 in0.0 mm 0.00 in0.0 mm
12:38 AM 39.7°F4.3°C 36.7°F2.6°C 89% 1.2 mph W1.9 kmh W 2.5 mph4.0 kmh 30.29 in1025.7 mb 0.00 in0.0 mm 0.00 in0.0 mm 0.00 in0.0 mm
12:28 AM 39.9°F4.4°C 36.7°F2.6°C 88% 1.2 mph W1.9 kmh W 1.9 mph3.1 kmh 30.29 in1025.7 mb 0.00 in0.0 mm 0.00 in0.0 mm 0.00 in0.0 mm
12:18 AM 40.3°F4.6°C 37.0°F2.8°C 88% 1.2 mph WNW1.9 kmh WNW 2.5 mph4.0 kmh 30.29 in1025.7 mb 0.00 in0.0 mm 0.00 in0.0 mm 0.00 in0.0 mm
12:08 AM 40.5°F4.7°C 37.2°F2.9°C 88% 1.2 mph W1.9 kmh W 2.5 mph4.0 kmh 30.29 in1025.7 mb 0.00 in0.0 mm 0.00 in0.0 mm 0.00 in0.0 mm